createdAt,value
2018-12-07T00:01:09.098Z,10.57
2018-12-07T00:03:37.697Z,11.00
2018-12-07T00:06:09.761Z,8.60
2018-12-07T00:13:47.197Z,11.93
2018-12-07T00:16:15.767Z,10.10
2018-12-07T00:19:02.865Z,9.97
2018-12-07T00:21:37.134Z,10.83
2018-12-07T00:24:07.554Z,8.57
2018-12-07T00:26:46.458Z,8.63
2018-12-07T00:29:31.554Z,7.47
2018-12-07T00:32:04.512Z,10.93
2018-12-07T00:34:36.351Z,9.23
2018-12-07T00:37:18.940Z,9.40
2018-12-07T00:39:54.525Z,9.33
2018-12-07T00:42:35.350Z,8.43
2018-12-07T00:48:07.101Z,12.00
2018-12-07T00:50:41.678Z,9.87
2018-12-07T00:53:16.459Z,12.20
2018-12-07T00:58:51.666Z,12.93
2018-12-07T01:01:25.863Z,11.70
2018-12-07T01:04:00.394Z,11.13
2018-12-07T01:06:32.611Z,12.73
2018-12-07T01:09:08.355Z,13.40
2018-12-07T01:11:42.274Z,11.87
2018-12-07T01:14:33.225Z,11.87
2018-12-07T01:17:11.269Z,12.90
2018-12-07T01:22:43.313Z,14.27
2018-12-07T01:25:19.231Z,12.47
2018-12-07T01:27:59.652Z,14.70
2018-12-07T01:30:29.418Z,11.43
2018-12-07T01:33:02.980Z,13.83
2018-12-07T01:35:38.253Z,11.87
2018-12-07T01:38:12.851Z,13.83
2018-12-07T01:43:46.945Z,12.63
2018-12-07T01:49:18.458Z,12.30
2018-12-07T01:55:05.097Z,12.93
2018-12-07T01:57:39.235Z,12.03
2018-12-07T02:00:14.223Z,11.67
2018-12-07T02:05:46.209Z,12.27
2018-12-07T02:08:21.019Z,10.63
2018-12-07T02:10:59.660Z,10.13
2018-12-07T02:13:46.519Z,11.00
2018-12-07T02:16:20.772Z,9.87
2018-12-07T02:18:56.695Z,10.57
2018-12-07T02:21:32.658Z,12.43
2018-12-07T02:24:05.354Z,11.00
2018-12-07T02:26:39.351Z,11.57
2018-12-07T02:29:15.229Z,13.73
2018-12-07T02:31:49.500Z,10.60
2018-12-07T02:34:35.990Z,10.60
2018-12-07T02:37:10.949Z,9.90
2018-12-07T02:39:43.466Z,9.83
2018-12-07T02:42:15.428Z,8.67
2018-12-07T02:44:50.428Z,8.27
2018-12-07T02:47:42.671Z,8.40
2018-12-07T02:53:12.782Z,8.40
2018-12-07T02:55:47.086Z,6.83
2018-12-07T02:58:37.973Z,7.87
2018-12-07T03:04:05.344Z,6.60
2018-12-07T03:06:39.834Z,7.23
2018-12-07T03:12:07.034Z,6.27
2018-12-07T03:14:41.706Z,6.00
2018-12-07T03:17:16.341Z,5.77
2018-12-07T03:19:52.172Z,6.43
2018-12-07T03:22:26.935Z,7.77
2018-12-07T03:25:07.672Z,6.33
2018-12-07T03:30:37.814Z,6.83
2018-12-07T03:33:11.932Z,8.17
2018-12-07T03:38:50.229Z,5.57
2018-12-07T03:41:24.536Z,4.77
2018-12-07T03:43:59.217Z,5.50
2018-12-07T03:46:33.637Z,4.90
2018-12-07T03:52:08.171Z,4.83
2018-12-07T03:54:41.004Z,4.67
2018-12-07T03:57:15.562Z,4.87
2018-12-07T03:59:44.173Z,5.03
2018-12-07T04:02:20.969Z,4.83
2018-12-07T04:04:55.561Z,4.30
2018-12-07T04:07:30.145Z,4.50
2018-12-07T04:10:02.055Z,5.27
2018-12-07T04:12:36.092Z,4.83
2018-12-07T04:15:10.781Z,5.03
2018-12-07T04:17:44.280Z,4.60
2018-12-07T04:26:12.795Z,4.23
2018-12-07T04:28:47.650Z,4.50
2018-12-07T04:34:23.476Z,4.30
2018-12-07T04:36:55.536Z,4.77
2018-12-07T04:39:29.513Z,4.50
2018-12-07T04:42:04.384Z,3.67
2018-12-07T04:44:38.882Z,4.43
2018-12-07T04:47:16.899Z,4.27
2018-12-07T04:49:49.329Z,3.93
2018-12-07T04:52:20.981Z,4.90
2018-12-07T04:54:58.322Z,5.23
2018-12-07T04:57:32.998Z,4.03
2018-12-07T05:00:08.215Z,4.90
2018-12-07T05:05:38.194Z,5.77
2018-12-07T05:08:12.216Z,5.40
2018-12-07T05:11:04.312Z,5.10
2018-12-07T05:13:38.143Z,5.50
2018-12-07T05:16:09.964Z,6.20
2018-12-07T05:18:44.089Z,7.07
2018-12-07T05:21:18.556Z,7.70
2018-12-07T05:24:03.439Z,6.97
2018-12-07T05:26:37.653Z,7.23
2018-12-07T05:29:09.869Z,7.80
2018-12-07T05:31:44.089Z,8.83
2018-12-07T05:34:20.581Z,8.73
2018-12-07T05:36:55.219Z,7.00
2018-12-07T05:39:28.752Z,7.40
2018-12-07T05:42:01.261Z,7.97
2018-12-07T05:44:33.188Z,8.73
2018-12-07T05:47:07.491Z,7.50
2018-12-07T05:49:38.817Z,9.00
2018-12-07T05:52:14.107Z,9.00
2018-12-07T05:54:53.626Z,8.63
2018-12-07T05:57:30.147Z,9.97
2018-12-07T06:00:05.680Z,9.03
2018-12-07T06:02:42.064Z,8.63
2018-12-07T06:08:14.992Z,8.30
2018-12-07T06:10:55.832Z,8.60
2018-12-07T06:13:40.477Z,10.57
2018-12-07T06:19:11.046Z,8.50
2018-12-07T06:24:43.075Z,7.10
2018-12-07T06:27:18.479Z,8.13
2018-12-07T06:29:47.187Z,7.07
2018-12-07T06:32:16.395Z,7.23
2018-12-07T06:35:04.554Z,7.53
2018-12-07T06:37:40.660Z,9.57
2018-12-07T06:43:09.068Z,6.70
2018-12-07T06:51:40.453Z,7.80
2018-12-07T06:54:14.776Z,7.27
2018-12-07T07:02:40.793Z,7.37
2018-12-07T07:05:15.676Z,7.23
2018-12-07T07:07:50.306Z,7.03
2018-12-07T07:10:22.597Z,7.43
2018-12-07T07:15:48.935Z,9.20
2018-12-07T07:18:26.956Z,8.47
2018-12-07T07:21:01.738Z,9.10
2018-12-07T07:23:35.829Z,9.07
2018-12-07T07:26:22.916Z,9.50
2018-12-07T07:28:53.621Z,10.80
2018-12-07T07:37:22.693Z,8.53
2018-12-07T07:39:51.317Z,10.87
2018-12-07T07:42:36.203Z,8.93
2018-12-07T07:45:10.198Z,7.37
2018-12-07T07:50:53.468Z,10.97
2018-12-07T07:53:22.030Z,8.80
2018-12-07T07:55:50.659Z,8.77
2018-12-07T07:58:24.890Z,7.07
2018-12-07T08:01:03.693Z,6.47
2018-12-07T08:03:38.119Z,8.10
2018-12-07T08:06:06.683Z,25.57
2018-12-07T08:08:36.285Z,9.10
2018-12-07T08:11:09.939Z,7.20
2018-12-07T08:13:44.811Z,8.13
2018-12-07T08:16:17.300Z,8.97
2018-12-07T08:21:43.392Z,7.77
2018-12-07T08:24:17.518Z,8.07
2018-12-07T08:26:46.181Z,6.97
2018-12-07T08:29:20.767Z,7.27
2018-12-07T08:31:51.302Z,6.80
2018-12-07T08:34:37.886Z,5.83
2018-12-07T08:37:14.100Z,6.70
2018-12-07T08:39:48.728Z,5.33
2018-12-07T08:42:21.106Z,5.80
2018-12-07T08:44:49.682Z,6.23
2018-12-07T08:47:28.748Z,5.47
2018-12-07T08:50:03.561Z,6.93
2018-12-07T08:52:37.686Z,4.57
2018-12-07T08:55:18.978Z,6.57
2018-12-07T08:57:58.310Z,4.93
2018-12-07T09:00:27.030Z,4.80
2018-12-07T09:03:08.064Z,4.97
2018-12-07T09:05:36.674Z,6.67
2018-12-07T09:08:15.190Z,6.63
2018-12-07T09:10:45.696Z,5.37
2018-12-07T09:13:26.185Z,5.50
2018-12-07T09:16:08.656Z,4.83
2018-12-07T09:18:38.221Z,5.37
2018-12-07T09:21:10.106Z,6.13
2018-12-07T09:23:49.363Z,7.27
2018-12-07T09:26:18.890Z,4.90
2018-12-07T09:28:53.452Z,6.90
2018-12-07T09:31:25.981Z,6.80
2018-12-07T09:34:00.887Z,5.73
2018-12-07T09:36:35.463Z,5.60
2018-12-07T09:39:09.644Z,5.40
2018-12-07T09:41:44.102Z,17.70
2018-12-07T09:44:16.530Z,6.87
2018-12-07T09:47:03.108Z,6.20
2018-12-07T09:49:31.730Z,6.23
2018-12-07T09:52:06.738Z,7.10
2018-12-07T09:54:39.863Z,6.03
2018-12-07T10:02:59.125Z,5.53
2018-12-07T10:05:30.751Z,5.53
2018-12-07T10:07:59.423Z,6.63
2018-12-07T10:10:33.469Z,7.00
2018-12-07T10:16:01.893Z,5.40
2018-12-07T10:18:35.984Z,5.03
2018-12-07T10:21:04.624Z,5.30
2018-12-07T10:23:39.102Z,7.00
2018-12-07T10:26:07.691Z,8.60
2018-12-07T10:28:46.432Z,7.00
2018-12-07T10:31:15.041Z,6.67
2018-12-07T10:34:00.578Z,5.70
2018-12-07T10:39:40.074Z,7.30
2018-12-07T10:45:12.537Z,7.23
2018-12-07T10:47:50.233Z,8.00
2018-12-07T10:50:21.121Z,6.53
2018-12-07T10:56:02.417Z,5.33
2018-12-07T10:58:36.674Z,4.40
2018-12-07T11:01:10.795Z,5.27
2018-12-07T11:03:44.620Z,5.13
2018-12-07T11:09:34.987Z,3.90
2018-12-07T11:12:12.639Z,8.33
2018-12-07T11:14:48.301Z,7.87
2018-12-07T11:17:28.585Z,4.03
2018-12-07T11:20:05.749Z,5.87
2018-12-07T11:22:47.633Z,6.17
2018-12-07T11:25:21.433Z,3.17
2018-12-07T11:28:01.616Z,4.07
2018-12-07T11:30:39.036Z,3.23
2018-12-07T11:33:39.845Z,4.27
2018-12-07T11:36:08.575Z,5.10
2018-12-07T11:38:44.007Z,4.30
2018-12-07T11:47:14.516Z,5.03
2018-12-07T11:49:49.195Z,4.53
2018-12-07T11:52:37.080Z,2.60
2018-12-07T11:58:22.738Z,2.10
2018-12-07T12:00:51.281Z,3.43
2018-12-07T12:03:32.885Z,3.20
2018-12-07T12:06:09.075Z,2.30
2018-12-07T12:08:43.835Z,2.63
2018-12-07T12:17:07.734Z,2.67
2018-12-07T12:19:43.683Z,3.33
2018-12-07T12:22:18.462Z,2.30
2018-12-07T12:25:05.368Z,1.60
2018-12-07T12:27:37.095Z,2.53
2018-12-07T12:33:06.285Z,1.90
2018-12-07T12:35:41.751Z,2.67
2018-12-07T12:38:17.436Z,2.20
2018-12-07T12:40:52.980Z,1.23
2018-12-07T12:43:27.152Z,2.27
2018-12-07T12:46:08.637Z,1.53
2018-12-07T12:48:44.850Z,1.27
2018-12-07T12:51:17.125Z,2.87
2018-12-07T12:54:03.848Z,1.60
2018-12-07T12:56:33.827Z,1.20
2018-12-07T13:02:07.735Z,1.77
2018-12-07T13:04:36.566Z,1.47
2018-12-07T13:13:09.444Z,1.63
2018-12-07T13:15:41.865Z,3.87
2018-12-07T13:18:13.715Z,2.57
2018-12-07T13:20:48.752Z,1.83
2018-12-07T13:23:30.889Z,1.33
2018-12-07T13:26:05.932Z,2.33
2018-12-07T13:31:38.925Z,1.70
2018-12-07T13:34:13.726Z,1.40
2018-12-07T13:36:49.166Z,1.53
2018-12-07T13:39:25.998Z,1.03
2018-12-07T13:42:04.488Z,1.53
2018-12-07T13:44:40.804Z,1.57
2018-12-07T13:47:15.874Z,3.90
2018-12-07T13:49:52.564Z,1.00
2018-12-07T13:52:27.425Z,2.40
2018-12-07T13:55:08.331Z,1.10
2018-12-07T13:57:53.076Z,1.53
2018-12-07T14:00:37.944Z,3.43
2018-12-07T14:03:13.336Z,1.00
2018-12-07T14:08:45.983Z,0.90
2018-12-07T14:11:21.417Z,1.77
2018-12-07T14:14:03.755Z,0.67
2018-12-07T14:16:35.479Z,1.33
2018-12-07T14:22:07.822Z,0.80
2018-12-07T14:24:40.501Z,1.60
2018-12-07T14:27:15.317Z,3.80
2018-12-07T14:32:38.016Z,1.47
2018-12-07T14:35:14.013Z,1.20
2018-12-07T14:37:49.132Z,0.97
2018-12-07T14:40:22.615Z,2.00
2018-12-07T14:43:07.275Z,0.70
2018-12-07T14:45:42.238Z,1.50
2018-12-07T14:51:14.811Z,0.93
2018-12-07T14:56:42.406Z,0.97
2018-12-07T14:59:14.497Z,1.20
2018-12-07T15:01:51.796Z,0.87
2018-12-07T15:04:35.350Z,2.10
2018-12-07T15:07:06.736Z,1.50
2018-12-07T15:09:47.991Z,1.23
2018-12-07T15:12:19.818Z,2.20
2018-12-07T15:14:55.988Z,1.00
2018-12-07T15:17:29.436Z,1.07
2018-12-07T15:20:01.415Z,2.33
2018-12-07T15:22:37.302Z,1.63
2018-12-07T15:28:10.423Z,1.97
2018-12-07T15:36:35.484Z,1.30
2018-12-07T15:48:05.661Z,2.73
2018-12-07T15:50:41.010Z,1.73
2018-12-07T15:53:15.813Z,1.10
2018-12-07T15:55:52.396Z,2.63
2018-12-07T15:58:43.447Z,3.20
2018-12-07T16:01:19.570Z,1.80
2018-12-07T16:04:05.576Z,2.70
2018-12-07T16:06:39.826Z,1.87
2018-12-07T16:12:09.014Z,2.33
2018-12-07T16:14:41.268Z,1.67
2018-12-07T16:17:16.257Z,3.50
2018-12-07T16:19:56.832Z,2.80
2018-12-07T16:22:31.829Z,3.17
2018-12-07T16:25:02.551Z,3.73
2018-12-07T16:30:40.402Z,1.83
2018-12-07T16:39:13.618Z,3.47
2018-12-07T16:41:48.499Z,2.77
2018-12-07T16:47:21.338Z,2.73
2018-12-07T16:49:55.856Z,3.13
2018-12-07T16:52:30.378Z,3.77
2018-12-07T16:55:15.388Z,2.43
2018-12-07T16:57:47.298Z,3.30
2018-12-07T17:00:21.467Z,4.10
2018-12-07T17:02:57.087Z,3.47
2018-12-07T17:05:35.604Z,4.00
2018-12-07T17:11:07.976Z,4.23
2018-12-07T17:13:40.339Z,2.43
2018-12-07T17:16:16.676Z,3.13
2018-12-07T17:19:05.778Z,1.73
2018-12-07T17:21:39.860Z,2.23
2018-12-07T17:24:12.097Z,3.77
2018-12-07T17:26:44.939Z,2.70
2018-12-07T17:32:17.863Z,2.10
2018-12-07T17:34:54.689Z,2.93
2018-12-07T17:37:31.470Z,2.83
2018-12-07T17:40:19.254Z,2.67
2018-12-07T17:46:05.823Z,8.90
2018-12-07T17:48:40.851Z,3.10
2018-12-07T17:51:13.445Z,3.80
2018-12-07T17:53:48.349Z,1.87
2018-12-07T17:56:29.530Z,2.93
2018-12-07T18:02:04.225Z,4.00
2018-12-07T18:07:34.698Z,3.63
2018-12-07T18:10:11.378Z,4.20
2018-12-07T18:12:47.339Z,3.33
2018-12-07T18:18:18.673Z,4.43
2018-12-07T18:20:54.418Z,5.90
2018-12-07T18:23:28.851Z,2.57
2018-12-07T18:26:03.758Z,3.67
2018-12-07T18:28:38.377Z,2.80
2018-12-07T18:31:13.021Z,4.37
2018-12-07T18:33:47.879Z,4.17
2018-12-07T18:36:22.645Z,3.30
2018-12-07T18:38:57.343Z,3.37
2018-12-07T18:41:31.899Z,4.23
2018-12-07T18:44:08.537Z,4.03
2018-12-07T18:46:43.890Z,4.90
2018-12-07T18:49:22.954Z,5.00
2018-12-07T18:51:55.194Z,5.20
2018-12-07T18:54:29.567Z,5.60
2018-12-07T18:57:08.357Z,5.43
2018-12-07T18:59:43.829Z,9.23
2018-12-07T19:05:26.166Z,6.67
2018-12-07T19:07:58.756Z,6.53
2018-12-07T19:10:34.652Z,7.67
2018-12-07T19:13:10.449Z,5.50
2018-12-07T19:15:51.577Z,6.27
2018-12-07T19:18:42.476Z,5.70
2018-12-07T19:21:16.760Z,5.17
2018-12-07T19:23:51.477Z,6.17
2018-12-07T19:26:27.375Z,4.53
2018-12-07T19:29:02.357Z,10.73
2018-12-07T19:31:37.205Z,9.60
2018-12-07T19:34:11.668Z,6.90
2018-12-07T19:36:57.906Z,7.43
2018-12-07T19:42:34.558Z,8.43
2018-12-07T19:45:09.642Z,8.53
2018-12-07T19:47:48.626Z,9.63
2018-12-07T19:50:23.725Z,10.13
2018-12-07T19:55:56.302Z,7.67
2018-12-07T20:01:29.486Z,9.40
2018-12-07T20:04:04.927Z,5.13
2018-12-07T20:06:39.263Z,10.77
2018-12-07T20:09:28.352Z,11.97
2018-12-07T20:12:02.589Z,9.03
2018-12-07T20:14:37.067Z,8.73
2018-12-07T20:17:12.989Z,5.33
2018-12-07T20:19:47.731Z,6.53
2018-12-07T20:22:28.623Z,11.87
2018-12-07T20:25:03.218Z,9.43
2018-12-07T20:27:32.299Z,12.23
2018-12-07T20:30:07.750Z,13.23
2018-12-07T20:32:43.659Z,13.80
2018-12-07T20:35:18.483Z,15.63
2018-12-07T20:47:57.309Z,10.03
2018-12-07T20:50:29.661Z,11.17
2018-12-07T20:53:04.884Z,11.43
2018-12-07T20:55:40.083Z,12.93
2018-12-07T20:58:14.542Z,13.27
2018-12-07T21:00:47.163Z,11.63
2018-12-07T21:03:40.807Z,15.27
2018-12-07T21:14:59.583Z,12.07
2018-12-07T21:17:37.238Z,10.53
2018-12-07T21:20:15.853Z,11.37
2018-12-07T21:22:49.999Z,14.10
2018-12-07T21:25:22.352Z,12.53
2018-12-07T21:27:51.223Z,13.30
2018-12-07T21:30:44.192Z,13.33
2018-12-07T21:33:30.238Z,12.57
2018-12-07T21:36:45.884Z,11.93
2018-12-07T21:42:18.220Z,12.13
2018-12-07T21:44:52.930Z,13.50
2018-12-07T21:47:35.136Z,12.70
2018-12-07T21:52:36.407Z,11.87
2018-12-07T21:55:15.741Z,11.70
2018-12-07T22:00:45.334Z,16.10
2018-12-07T22:03:20.455Z,11.87
2018-12-07T22:06:00.070Z,12.30
2018-12-07T22:11:36.908Z,15.37
2018-12-07T22:14:12.699Z,13.97
2018-12-07T22:19:45.847Z,14.07
2018-12-07T22:22:20.335Z,12.57
2018-12-07T22:25:13.323Z,15.07
2018-12-07T22:27:42.064Z,13.33
2018-12-07T22:30:13.685Z,10.53
2018-12-07T22:32:46.428Z,9.43
2018-12-07T22:35:21.599Z,11.90
2018-12-07T22:40:58.517Z,8.20
2018-12-07T22:43:30.808Z,12.37
2018-12-07T22:46:06.681Z,7.23
2018-12-07T22:48:41.662Z,7.20
2018-12-07T22:51:23.163Z,8.23
2018-12-07T22:56:28.389Z,8.50
2018-12-07T23:02:06.874Z,7.07
2018-12-07T23:04:39.104Z,6.03
2018-12-07T23:10:11.781Z,8.50
2018-12-07T23:15:43.667Z,7.47
2018-12-07T23:18:19.582Z,9.60
2018-12-07T23:20:54.541Z,6.80
2018-12-07T23:23:29.070Z,5.80
2018-12-07T23:29:12.292Z,9.17
2018-12-07T23:31:40.822Z,8.00
2018-12-07T23:34:11.062Z,10.87
2018-12-07T23:36:40.651Z,9.93
2018-12-07T23:48:09.817Z,13.43
2018-12-07T23:50:44.370Z,14.40
2018-12-07T23:53:13.033Z,12.53
2018-12-07T23:55:48.459Z,9.67
2018-12-07T23:58:18.605Z,15.43
